Terminal Aerodrome Forecast
Issued by NWS

Home | Current Version | Previous Version | Text Only | Print | Product List | Glossary On
Versions: 1 2 3 4 5 6 7 8 9 10 11 12 13 14 15 16 17 18 19 20 21 22 23 24 25
186
FTUS43 KAPX 282320
TAFTVC
TAF
KTVC 282320Z 2900/2924 36007KT P6SM FEW250
     FM290700 02005KT P6SM FEW008
     FM291100 VRB03KT P6SM FEW015
     FM291500 06005KT P6SM FEW035 SCT200
     FM292100 03007KT P6SM BKN140=

USA.gov is the U.S. government's official web portal to all federal, state and local government web resources and services.